Time;durP1;ratioP1;P1;durP2;ratioP2;P2;SDS_P1;SDS_P2;PMS_P1;PMS_P2;Temp;Humidity;BMP_temperature;BMP_pressure;BME280_temperature;BME280_humidity;BME280_pressure;Samples;Min_cycle;Max_cycle;Signal;HPM_P1;HPM_P2
2022/01/19 14:34:08;;;;;;;9.68;1.23;;;;;;;;;;5077582;27;20487;-38
2022/01/19 14:36:35;;;;;;;6.45;1.17;;;;;;;;;;5075392;28;20029;-39
2022/01/19 14:39:03;;;;;;;5.90;0.88;;;;;;;;;;5077788;28;20035;-40
2022/01/19 14:41:33;;;;;;;5.75;1.05;;;;;;;;;;5077068;28;20063;-40
2022/01/19 14:44:20;;;;;;;4.68;1.20;;;;;;;;;;5075112;28;20028;-39
2022/01/19 14:47:06;;;;;;;9.57;1.60;;;;;;;;;;5075179;28;20087;-38
2022/01/19 14:49:35;;;;;;;9.07;1.13;;;;;;;;;;5076940;28;20037;-39
2022/01/19 14:52:04;;;;;;;4.22;1.40;;;;;;;;;;5083931;28;20044;-39
2022/01/19 14:54:31;;;;;;;10.20;1.60;;;;;;;;;;5074094;28;20044;-39
2022/01/19 14:56:58;;;;;;;11.10;1.63;;;;;;;;;;5073938;28;20032;-40
2022/01/19 14:59:25;;;;;;;6.80;1.25;;;;;;;;;;5075774;28;20041;-40
2022/01/19 15:01:55;;;;;;;31.75;2.55;;;;;;;;;;5068993;28;20032;-38
2022/01/19 15:04:22;;;;;;;39.30;2.92;;;;;;;;;;5077971;28;20123;-39
2022/01/19 15:06:50;;;;;;;14.75;2.00;;;;;;;;;;5076428;28;20482;-41
2022/01/19 15:09:19;;;;;;;26.38;2.28;;;;;;;;;;5075213;28;20029;-41
2022/01/19 15:11:47;;;;;;;21.80;2.42;;;;;;;;;;5085101;28;20063;-41
2022/01/19 15:14:17;;;;;;;16.13;2.00;;;;;;;;;;5075724;28;20024;-41
2022/01/19 15:16:44;;;;;;;14.07;1.92;;;;;;;;;;5077070;28;20028;-41
2022/01/19 15:19:11;;;;;;;19.98;1.95;;;;;;;;;;5073138;28;20082;-40
2022/01/19 15:21:38;;;;;;;15.15;2.10;;;;;;;;;;5076494;28;20039;-40
2022/01/19 15:24:06;;;;;;;10.05;1.70;;;;;;;;;;5076306;28;20071;-41
2022/01/19 15:26:33;;;;;;;18.23;2.28;;;;;;;;;;5075400;28;20140;-38
2022/01/19 15:29:01;;;;;;;13.82;2.05;;;;;;;;;;5074093;28;20112;-38
2022/01/19 15:31:29;;;;;;;9.93;2.00;;;;;;;;;;5073649;28;20035;-40
2022/01/19 15:33:56;;;;;;;10.30;1.52;;;;;;;;;;5073111;28;20057;-39
2022/01/19 15:36:23;;;;;;;8.95;1.83;;;;;;;;;;5073755;28;20047;-39
2022/01/19 15:38:51;;;;;;;13.55;1.35;;;;;;;;;;5077399;28;20032;-37
2022/01/19 15:41:18;;;;;;;12.65;1.70;;;;;;;;;;5074962;28;20068;-39
2022/01/19 15:43:45;;;;;;;12.32;2.13;;;;;;;;;;5071996;28;20079;-38
2022/01/19 15:46:12;;;;;;;4.90;1.40;;;;;;;;;;5061415;28;20182;-38
2022/01/19 15:48:40;;;;;;;7.13;1.83;;;;;;;;;;5058698;28;20032;-39
2022/01/19 15:51:07;;;;;;;14.90;2.03;;;;;;;;;;5063865;28;20040;-39
2022/01/19 15:53:35;;;;;;;10.93;2.85;;;;;;;;;;5066033;28;20072;-38
2022/01/19 15:56:02;;;;;;;6.47;2.80;;;;;;;;;;5064404;28;20393;-39
2022/01/19 15:58:29;;;;;;;5.03;2.50;;;;;;;;;;5059100;28;20115;-39
2022/01/19 16:00:56;;;;;;;8.43;2.67;;;;;;;;;;5063125;28;20033;-39
2022/01/19 16:03:24;;;;;;;7.75;2.25;;;;;;;;;;5059747;28;20021;-39
2022/01/19 16:05:52;;;;;;;16.55;2.17;;;;;;;;;;5059798;28;20033;-38
2022/01/19 16:08:19;;;;;;;6.15;2.50;;;;;;;;;;5068662;28;20474;-39
2022/01/19 16:10:48;;;;;;;3.10;2.10;;;;;;;;;;5053917;28;20036;-38
2022/01/19 16:13:16;;;;;;;5.25;2.25;;;;;;;;;;5063505;28;20045;-39
2022/01/19 16:15:43;;;;;;;8.02;2.30;;;;;;;;;;5061765;28;20114;-38
2022/01/19 16:18:12;;;;;;;2.80;2.03;;;;;;;;;;5059924;28;20032;-37
2022/01/19 16:20:39;;;;;;;5.50;1.95;;;;;;;;;;5060921;28;20398;-37
2022/01/19 16:26:07;;;;;;;3.78;2.60;;;;;;;;;;5051506;28;20075;-38
2022/01/19 16:28:33;;;;;;;;;;;;;;;;;;5053652;28;20025;-38
2022/01/19 16:31:00;;;;;;;11.25;6.75;;;;;;;;;;5062229;28;19915;-40
2022/01/19 16:33:27;;;;;;;11.63;8.25;;;;;;;;;;5053197;28;20118;-39
2022/01/19 16:35:55;;;;;;;16.55;9.60;;;;;;;;;;5054583;28;20025;-38
2022/01/19 16:38:22;;;;;;;47.35;21.00;;;;;;;;;;5057024;28;20066;-37
2022/01/19 16:40:54;;;;;;;134.45;63.08;;;;;;;;;;5055018;28;20051;-38
2022/01/19 16:43:25;;;;;;;89.15;42.72;;;;;;;;;;5057593;28;20060;-38
2022/01/19 16:45:53;;;;;;;102.28;49.38;;;;;;;;;;5059473;28;20032;-39
2022/01/19 16:48:21;;;;;;;86.60;44.28;;;;;;;;;;5060618;28;20064;-38
2022/01/19 16:50:49;;;;;;;77.13;37.97;;;;;;;;;;5062164;28;20119;-38
2022/01/19 16:53:17;;;;;;;60.97;32.58;;;;;;;;;;5067743;28;20041;-38
2022/01/19 16:55:45;;;;;;;62.05;29.67;;;;;;;;;;5062128;28;20038;-45
2022/01/19 16:58:12;;;;;;;50.40;26.23;;;;;;;;;;5063171;28;20063;-38
2022/01/19 17:00:39;;;;;;;26.17;15.02;;;;;;;;;;5068555;28;20047;-38
2022/01/19 17:03:06;;;;;;;20.90;12.35;;;;;;;;;;5059967;28;20498;-38
2022/01/19 17:05:33;;;;;;;19.75;10.98;;;;;;;;;;5060318;28;20028;-38
2022/01/19 17:08:00;;;;;;;17.38;9.75;;;;;;;;;;5038016;28;20048;-38
2022/01/19 17:10:28;;;;;;;13.02;7.72;;;;;;;;;;5063163;28;20032;-36
2022/01/19 17:13:01;;;;;;;9.88;6.43;;;;;;;;;;5065458;28;20117;-37
2022/01/19 17:15:39;;;;;;;;;;;;;;;;;;5051156;28;20060;-38
2022/01/19 17:18:06;;;;;;;7.75;4.90;;;;;;;;;;5051241;28;19991;-37
2022/01/19 17:20:37;;;;;;;6.68;4.22;;;;;;;;;;5050008;28;20499;-36
2022/01/19 17:23:07;;;;;;;7.13;4.30;;;;;;;;;;5051827;28;20033;-37
2022/01/19 17:25:38;;;;;;;4.15;3.10;;;;;;;;;;5051674;28;20391;-38
2022/01/19 17:28:06;;;;;;;7.80;3.60;;;;;;;;;;5049140;28;20087;-38
2022/01/19 17:30:33;;;;;;;3.85;3.08;;;;;;;;;;5059777;28;20029;-37
2022/01/19 17:33:00;;;;;;;5.15;2.78;;;;;;;;;;5056191;28;20552;-37
2022/01/19 17:35:28;;;;;;;16.10;3.13;;;;;;;;;;5046891;28;20021;-37
2022/01/19 17:37:55;;;;;;;15.57;3.40;;;;;;;;;;5050428;28;20048;-37
2022/01/19 17:40:22;;;;;;;12.77;2.88;;;;;;;;;;5049941;28;20114;-36
2022/01/19 17:42:49;;;;;;;6.95;2.72;;;;;;;;;;5049941;28;20380;-36
2022/01/19 17:45:25;;;;;;;9.18;2.50;;;;;;;;;;5048559;28;20040;-38
2022/01/19 17:48:03;;;;;;;3.72;2.33;;;;;;;;;;5049722;28;20052;-36
2022/01/19 17:53:16;;;;;;;32.78;3.83;;;;;;;;;;5049661;28;20159;-36
2022/01/19 17:55:44;;;;;;;22.40;3.15;;;;;;;;;;5050332;28;20025;-36
2022/01/19 17:58:11;;;;;;;18.17;2.90;;;;;;;;;;5050451;28;20032;-37
2022/01/19 18:00:38;;;;;;;22.05;2.70;;;;;;;;;;5049552;28;20028;-36
2022/01/19 18:03:05;;;;;;;16.35;3.40;;;;;;;;;;5048884;28;20025;-36
2022/01/19 18:05:33;;;;;;;13.93;2.80;;;;;;;;;;5053835;28;20356;-36
2022/01/19 18:08:00;;;;;;;16.25;2.80;;;;;;;;;;5055052;28;20111;-36
2022/01/19 18:10:29;;;;;;;9.27;2.90;;;;;;;;;;5052135;28;20385;-36
2022/01/19 18:13:00;;;;;;;13.65;2.55;;;;;;;;;;5049132;28;20071;-36
2022/01/19 18:15:27;;;;;;;10.70;3.05;;;;;;;;;;5054869;28;20025;-37
2022/01/19 18:17:54;;;;;;;7.97;2.75;;;;;;;;;;5051749;28;20115;-38
2022/01/19 18:20:25;;;;;;;9.45;3.40;;;;;;;;;;5053869;28;20044;-36
2022/01/19 18:22:53;;;;;;;4.72;3.08;;;;;;;;;;5048489;28;20104;-35
2022/01/19 18:25:20;;;;;;;5.45;2.95;;;;;;;;;;5054471;28;21403;-35
2022/01/19 18:27:51;;;;;;;4.97;2.35;;;;;;;;;;5054491;28;20028;-36
2022/01/19 18:30:24;;;;;;;6.10;2.85;;;;;;;;;;5052842;28;20033;-35
2022/01/19 18:32:52;;;;;;;5.22;2.97;;;;;;;;;;5053141;28;20041;-36
2022/01/19 18:35:19;;;;;;;4.32;2.55;;;;;;;;;;5051642;28;20033;-36
2022/01/19 18:37:53;;;;;;;4.57;2.78;;;;;;;;;;5049781;28;20040;-36
2022/01/19 18:40:25;;;;;;;3.72;3.17;;;;;;;;;;5050503;28;20050;-39
2022/01/19 18:42:53;;;;;;;3.10;2.80;;;;;;;;;;5054261;28;20029;-36
2022/01/19 18:45:20;;;;;;;3.55;2.65;;;;;;;;;;5053147;28;20025;-36
2022/01/19 18:47:49;;;;;;;3.35;2.40;;;;;;;;;;5058225;28;20484;-36
2022/01/19 18:50:19;;;;;;;3.08;2.30;;;;;;;;;;5056234;28;20060;-36
2022/01/19 18:52:46;;;;;;;4.63;3.00;;;;;;;;;;5049339;28;20040;-35
2022/01/19 18:55:17;;;;;;;3.05;2.63;;;;;;;;;;5048153;28;20035;-35
2022/01/19 18:57:44;;;;;;;3.35;2.63;;;;;;;;;;5051276;28;20033;-35
2022/01/19 19:00:16;;;;;;;2.63;2.22;;;;;;;;;;5048350;28;20025;-36
2022/01/19 19:02:49;;;;;;;3.05;2.33;;;;;;;;;;5053732;28;20504;-35
2022/01/19 19:05:20;;;;;;;4.05;2.30;;;;;;;;;;5059573;28;20065;-37
2022/01/19 19:07:48;;;;;;;3.15;2.42;;;;;;;;;;5063112;28;20029;-36
2022/01/19 19:12:45;;;;;;;2.38;2.13;;;;;;;;;;5053723;28;20048;-37
2022/01/19 19:15:15;;;;;;;2.90;2.33;;;;;;;;;;5061106;28;20126;-36
2022/01/19 19:17:42;;;;;;;2.67;2.42;;;;;;;;;;5055144;28;20033;-37
2022/01/19 19:20:10;;;;;;;2.47;2.13;;;;;;;;;;5069801;28;20033;-36
2022/01/19 19:22:37;;;;;;;3.58;2.10;;;;;;;;;;5056984;28;20032;-37
2022/01/19 19:25:05;;;;;;;2.88;2.28;;;;;;;;;;5057016;28;20368;-37
2022/01/19 19:27:41;;;;;;;5.10;2.20;;;;;;;;;;5060168;28;20490;-37
2022/01/19 19:30:08;;;;;;;2.47;2.08;;;;;;;;;;5059609;28;20033;-36
2022/01/19 19:32:35;;;;;;;2.85;2.10;;;;;;;;;;5069600;28;20045;-36
2022/01/19 19:35:02;;;;;;;2.47;2.22;;;;;;;;;;5060874;28;20037;-36
2022/01/19 19:37:29;;;;;;;3.40;2.40;;;;;;;;;;5058033;28;20036;-37
2022/01/19 19:39:56;;;;;;;5.22;2.50;;;;;;;;;;5061885;28;20370;-37
2022/01/19 19:42:23;;;;;;;3.35;2.30;;;;;;;;;;5059808;28;20029;-35
2022/01/19 19:44:50;;;;;;;2.38;2.15;;;;;;;;;;5052328;28;20095;-36
2022/01/19 19:47:17;;;;;;;4.45;2.30;;;;;;;;;;5056855;28;20033;-36
2022/01/19 19:49:44;;;;;;;2.88;1.90;;;;;;;;;;5057692;28;20040;-35
2022/01/19 19:52:12;;;;;;;3.53;2.13;;;;;;;;;;5052208;28;20052;-35
2022/01/19 19:54:39;;;;;;;2.72;2.00;;;;;;;;;;5060279;28;20036;-35
2022/01/19 19:57:07;;;;;;;2.78;2.22;;;;;;;;;;5057770;28;20017;-37
2022/01/19 19:59:34;;;;;;;2.45;2.20;;;;;;;;;;5058531;28;20398;-35
2022/01/19 20:02:01;;;;;;;2.50;2.08;;;;;;;;;;5067929;28;20089;-35
2022/01/19 20:04:28;;;;;;;5.18;2.63;;;;;;;;;;5056520;28;20042;-35
2022/01/19 20:06:55;;;;;;;4.50;2.22;;;;;;;;;;5062624;28;20514;-36
2022/01/19 20:09:22;;;;;;;4.28;2.10;;;;;;;;;;5055428;28;20032;-36
2022/01/19 20:11:50;;;;;;;5.22;1.90;;;;;;;;;;5051583;28;20029;-35
2022/01/19 20:14:17;;;;;;;4.40;2.13;;;;;;;;;;5054698;28;20040;-37
2022/01/19 20:16:44;;;;;;;4.22;2.22;;;;;;;;;;5054135;28;20035;-36
2022/01/19 20:19:11;;;;;;;2.60;2.10;;;;;;;;;;5055666;28;20060;-36
2022/01/19 20:21:41;;;;;;;7.13;2.13;;;;;;;;;;5063668;28;20074;-37
2022/01/19 20:24:10;;;;;;;5.20;1.85;;;;;;;;;;5061178;28;20469;-37
2022/01/19 20:26:38;;;;;;;8.77;2.17;;;;;;;;;;5052467;28;20035;-36
2022/01/19 20:29:05;;;;;;;4.50;2.00;;;;;;;;;;5057537;28;20025;-36
2022/01/19 20:31:32;;;;;;;8.35;2.17;;;;;;;;;;5067142;28;20034;-36
2022/01/19 20:33:59;;;;;;;5.90;1.90;;;;;;;;;;5059481;28;20045;-36
2022/01/19 20:36:26;;;;;;;5.75;1.98;;;;;;;;;;5049694;28;20025;-37
2022/01/19 20:38:55;;;;;;;6.22;2.30;;;;;;;;;;5056350;28;20464;-36
2022/01/19 20:41:23;;;;;;;3.00;2.00;;;;;;;;;;5060352;28;20539;-36
2022/01/19 20:43:50;;;;;;;2.38;1.85;;;;;;;;;;5062017;28;20028;-36
2022/01/19 20:46:18;;;;;;;4.40;2.05;;;;;;;;;;5058365;28;21043;-37
2022/01/19 20:48:45;;;;;;;6.72;2.17;;;;;;;;;;5054904;28;20135;-39
2022/01/19 20:51:12;;;;;;;6.03;1.90;;;;;;;;;;5060596;28;20025;-37
2022/01/19 20:53:39;;;;;;;4.55;1.80;;;;;;;;;;5051866;28;20033;-37
2022/01/19 20:56:06;;;;;;;5.25;2.25;;;;;;;;;;5050204;28;20042;-37
2022/01/19 20:58:33;;;;;;;2.88;1.90;;;;;;;;;;5049719;28;20028;-38
2022/01/19 21:01:00;;;;;;;5.53;2.00;;;;;;;;;;5051111;28;20071;-37
2022/01/19 21:03:27;;;;;;;4.75;2.10;;;;;;;;;;5061390;28;20054;-37
2022/01/19 21:05:54;;;;;;;3.03;1.88;;;;;;;;;;5056574;28;20029;-38
2022/01/19 21:08:21;;;;;;;5.30;2.30;;;;;;;;;;5051905;28;20497;-38
2022/01/19 21:10:48;;;;;;;2.63;2.00;;;;;;;;;;5067842;28;20028;-38
2022/01/19 21:13:15;;;;;;;2.72;2.17;;;;;;;;;;5059550;28;20044;-40
2022/01/19 21:15:42;;;;;;;4.15;2.03;;;;;;;;;;5059756;28;20032;-38
2022/01/19 21:18:09;;;;;;;5.97;2.45;;;;;;;;;;5061567;28;20033;-37
2022/01/19 21:20:37;;;;;;;4.70;2.10;;;;;;;;;;5063945;28;20025;-38
2022/01/19 21:23:06;;;;;;;2.33;2.10;;;;;;;;;;5053176;28;20063;-38
2022/01/19 21:25:33;;;;;;;3.75;2.25;;;;;;;;;;5056716;28;20037;-37
2022/01/19 21:28:00;;;;;;;2.03;1.83;;;;;;;;;;5054277;28;20489;-39
2022/01/19 21:30:27;;;;;;;3.42;1.98;;;;;;;;;;5050653;28;20063;-39
2022/01/19 21:32:54;;;;;;;3.65;2.30;;;;;;;;;;5053540;28;20083;-39
2022/01/19 21:35:23;;;;;;;2.10;1.90;;;;;;;;;;5052203;28;20072;-37
2022/01/19 21:37:51;;;;;;;5.05;2.50;;;;;;;;;;5054061;28;20037;-40
2022/01/19 21:40:19;;;;;;;2.45;2.15;;;;;;;;;;5054734;28;20029;-38
2022/01/19 21:42:46;;;;;;;2.10;1.90;;;;;;;;;;5059433;28;20074;-39
2022/01/19 21:45:13;;;;;;;2.72;2.00;;;;;;;;;;5059981;28;20039;-38
2022/01/19 21:47:40;;;;;;;4.20;2.03;;;;;;;;;;5055113;28;20032;-38
2022/01/19 21:50:08;;;;;;;3.08;1.90;;;;;;;;;;5055964;28;20021;-38
2022/01/19 21:52:36;;;;;;;4.10;2.25;;;;;;;;;;5067696;28;20039;-39
2022/01/19 21:55:04;;;;;;;6.18;2.47;;;;;;;;;;5058983;28;20036;-37
2022/01/19 21:57:31;;;;;;;2.95;2.17;;;;;;;;;;5057775;28;20040;-38
2022/01/19 21:59:58;;;;;;;4.20;1.98;;;;;;;;;;5056483;28;20029;-38
2022/01/19 22:02:25;;;;;;;4.18;2.00;;;;;;;;;;5063945;28;20133;-38
2022/01/19 22:04:52;;;;;;;2.15;1.80;;;;;;;;;;5046301;28;20036;-39
2022/01/19 22:07:19;;;;;;;3.20;1.92;;;;;;;;;;5057414;28;20505;-39
2022/01/19 22:09:46;;;;;;;4.55;1.88;;;;;;;;;;5061250;28;20091;-38
2022/01/19 22:12:13;;;;;;;2.10;1.90;;;;;;;;;;5050529;28;20039;-37
2022/01/19 22:14:40;;;;;;;4.72;2.20;;;;;;;;;;5047511;28;20489;-38
2022/01/19 22:17:09;;;;;;;2.80;2.00;;;;;;;;;;5053860;28;20147;-38
2022/01/19 22:19:37;;;;;;;2.83;1.85;;;;;;;;;;5061098;28;20037;-38
2022/01/19 22:22:05;;;;;;;3.72;2.00;;;;;;;;;;5060755;28;20082;-38
2022/01/19 22:24:32;;;;;;;4.00;2.17;;;;;;;;;;5050489;28;20032;-37
2022/01/19 22:27:00;;;;;;;3.65;2.42;;;;;;;;;;5059002;28;20032;-37
2022/01/19 22:29:28;;;;;;;2.25;2.03;;;;;;;;;;5059919;28;20029;-38
2022/01/19 22:31:56;;;;;;;7.05;2.45;;;;;;;;;;5065935;28;20537;-38
2022/01/19 22:34:23;;;;;;;3.78;1.90;;;;;;;;;;5048705;28;20122;-38
2022/01/19 22:36:51;;;;;;;3.22;2.03;;;;;;;;;;5048685;28;20429;-38
2022/01/19 22:39:25;;;;;;;3.88;2.28;;;;;;;;;;5052198;28;20487;-37
2022/01/19 22:41:54;;;;;;;4.88;2.17;;;;;;;;;;5050432;28;20029;-37
2022/01/19 22:44:21;;;;;;;4.28;2.03;;;;;;;;;;5056415;28;20083;-37
2022/01/19 22:46:49;;;;;;;3.13;2.10;;;;;;;;;;5051154;28;20039;-38
2022/01/19 22:49:18;;;;;;;2.03;1.83;;;;;;;;;;5059827;28;20482;-38
2022/01/19 22:51:45;;;;;;;4.53;2.47;;;;;;;;;;5062901;28;20086;-38
2022/01/19 22:54:12;;;;;;;4.32;2.30;;;;;;;;;;5060655;28;20036;-38
2022/01/19 22:56:39;;;;;;;4.00;2.42;;;;;;;;;;5059142;28;20037;-38
2022/01/19 22:59:07;;;;;;;2.88;2.00;;;;;;;;;;5062788;28;20025;-38
2022/01/19 23:01:34;;;;;;;6.13;2.47;;;;;;;;;;5064996;28;20131;-38
2022/01/19 23:04:02;;;;;;;5.35;2.50;;;;;;;;;;5062590;28;20551;-38
2022/01/19 23:06:32;;;;;;;4.60;2.10;;;;;;;;;;5051638;28;20136;-38
2022/01/19 23:08:59;;;;;;;2.72;2.05;;;;;;;;;;5058980;28;20075;-38
2022/01/19 23:11:29;;;;;;;5.35;2.45;;;;;;;;;;5061318;28;22209;-39
2022/01/19 23:13:59;;;;;;;7.05;3.10;;;;;;;;;;5056376;28;20483;-38
2022/01/19 23:16:26;;;;;;;4.75;2.80;;;;;;;;;;5050625;28;20090;-38
2022/01/19 23:18:53;;;;;;;11.38;3.40;;;;;;;;;;5063475;28;20025;-38
2022/01/19 23:21:21;;;;;;;6.30;3.28;;;;;;;;;;5066587;28;20032;-38
2022/01/19 23:23:48;;;;;;;9.30;2.70;;;;;;;;;;5061401;28;20025;-38
2022/01/19 23:26:15;;;;;;;9.57;2.78;;;;;;;;;;5060630;28;20051;-38
2022/01/19 23:28:42;;;;;;;8.90;3.42;;;;;;;;;;5063123;28;20052;-38
2022/01/19 23:31:09;;;;;;;8.10;3.35;;;;;;;;;;5060489;28;20648;-38
2022/01/19 23:33:37;;;;;;;8.77;3.30;;;;;;;;;;5061005;28;20040;-38
2022/01/19 23:36:07;;;;;;;10.63;3.22;;;;;;;;;;5057028;28;20483;-38
2022/01/19 23:49:29;;;;;;;4.53;2.65;;;;;;;;;;5060940;28;20097;-37
2022/01/19 23:51:56;;;;;;;5.35;2.70;;;;;;;;;;5068030;28;20024;-38
2022/01/19 23:54:24;;;;;;;7.70;3.10;;;;;;;;;;5060022;28;20380;-38
2022/01/19 23:59:43;;;;;;;14.23;5.80;;;;;;;;;;5055730;28;20048;-37
